createdAt,value
2019-06-20T00:01:16.834Z,17.60
2019-06-20T00:03:46.969Z,17.60
2019-06-20T00:06:30.355Z,17.60
2019-06-20T00:09:00.449Z,17.60
2019-06-20T00:11:55.713Z,17.60
2019-06-20T00:14:25.842Z,17.50
2019-06-20T00:17:18.203Z,17.50
2019-06-20T00:19:48.161Z,17.50
2019-06-20T00:22:21.505Z,17.40
2019-06-20T00:24:50.077Z,17.40
2019-06-20T00:27:20.156Z,17.40
2019-06-20T00:29:50.272Z,17.40
2019-06-20T00:32:20.787Z,17.30
2019-06-20T00:34:50.925Z,17.20
2019-06-20T00:37:21.071Z,17.30
2019-06-20T00:39:51.172Z,17.20
2019-06-20T00:42:21.304Z,17.10
2019-06-20T00:44:51.386Z,17.20
2019-06-20T00:47:21.521Z,17.10
2019-06-20T00:49:51.623Z,17.10
2019-06-20T00:52:22.096Z,17.00
2019-06-20T00:55:08.665Z,17.00
2019-06-20T00:57:38.750Z,17.00
2019-06-20T01:00:31.795Z,17.00
2019-06-20T01:03:02.075Z,16.90
2019-06-20T01:05:53.208Z,16.90
2019-06-20T01:08:23.733Z,17.00
2019-06-20T01:10:53.873Z,17.00
2019-06-20T01:13:33.002Z,17.00
2019-06-20T01:15:55.673Z,17.00
2019-06-20T01:18:25.823Z,17.00
2019-06-20T01:20:55.982Z,17.00
2019-06-20T01:23:26.120Z,17.00
2019-06-20T01:25:56.239Z,17.10
2019-06-20T01:28:26.363Z,17.10
2019-06-20T01:30:56.527Z,17.10
2019-06-20T01:33:26.643Z,17.10
2019-06-20T01:35:56.761Z,17.10
2019-06-20T01:38:26.899Z,17.10
2019-06-20T01:40:57.004Z,17.20
2019-06-20T01:43:50.493Z,17.20
2019-06-20T01:46:16.979Z,17.20
2019-06-20T01:49:09.672Z,17.20
2019-06-20T01:51:39.893Z,17.20
2019-06-20T01:54:32.646Z,17.20
2019-06-20T01:57:02.704Z,17.20
2019-06-20T01:59:55.825Z,17.20
2019-06-20T02:02:20.261Z,17.20
2019-06-20T02:04:50.333Z,17.10
2019-06-20T02:07:20.438Z,17.10
2019-06-20T02:09:50.559Z,17.10
2019-06-20T02:12:20.626Z,17.10
2019-06-20T02:14:50.677Z,17.10
2019-06-20T02:17:20.785Z,17.10
2019-06-20T02:19:50.921Z,17.00
2019-06-20T02:22:21.101Z,17.00
2019-06-20T02:24:51.206Z,17.00
2019-06-20T02:27:22.556Z,16.90
2019-06-20T02:29:52.662Z,16.90
2019-06-20T02:32:22.816Z,16.90
2019-06-20T02:34:52.900Z,16.90
2019-06-20T02:37:43.656Z,17.00
2019-06-20T02:40:14.050Z,17.10
2019-06-20T02:43:06.413Z,17.10
2019-06-20T02:45:39.570Z,17.20
2019-06-20T02:48:33.983Z,17.20
2019-06-20T02:51:04.178Z,17.10
2019-06-20T02:53:58.121Z,17.10
2019-06-20T02:56:28.212Z,17.20
2019-06-20T02:59:21.328Z,17.10
2019-06-20T03:01:51.472Z,17.20
2019-06-20T03:04:45.735Z,17.20
2019-06-20T03:07:15.641Z,17.30
2019-06-20T03:10:14.475Z,17.40
2019-06-20T03:12:44.607Z,17.60
2019-06-20T03:15:32.878Z,17.70
2019-06-20T03:18:02.989Z,17.80
2019-06-20T03:20:41.646Z,18.00
2019-06-20T03:23:11.768Z,18.10
2019-06-20T03:25:41.889Z,18.20
2019-06-20T03:28:12.266Z,18.40
2019-06-20T03:30:42.357Z,18.50
2019-06-20T03:33:12.508Z,18.60
2019-06-20T03:35:42.669Z,18.60
2019-06-20T03:38:12.877Z,18.80
2019-06-20T03:40:43.012Z,18.90
2019-06-20T03:43:13.109Z,19.00
2019-06-20T03:45:43.228Z,19.20
2019-06-20T03:48:13.314Z,19.30
2019-06-20T03:50:43.457Z,19.60
2019-06-20T03:53:18.870Z,19.70
2019-06-20T03:55:49.070Z,19.90
2019-06-20T03:58:41.438Z,20.00
2019-06-20T04:01:11.520Z,20.20
2019-06-20T04:03:49.050Z,20.60
2019-06-20T04:06:19.342Z,20.80
2019-06-20T04:08:49.470Z,20.90
2019-06-20T04:11:19.580Z,21.20
2019-06-20T04:13:49.792Z,21.30
2019-06-20T04:16:19.879Z,21.60
2019-06-20T04:18:50.025Z,21.70
2019-06-20T04:21:20.159Z,21.80
2019-06-20T04:23:50.240Z,22.00
2019-06-20T04:26:20.354Z,22.20
2019-06-20T04:28:50.453Z,22.20
2019-06-20T04:31:20.568Z,22.20
2019-06-20T04:33:50.652Z,22.30
2019-06-20T04:36:31.079Z,22.30
2019-06-20T04:39:01.239Z,22.30
2019-06-20T04:41:52.004Z,22.50
2019-06-20T04:44:22.105Z,22.50
2019-06-20T04:47:16.170Z,22.60
2019-06-20T04:49:46.313Z,22.50
2019-06-20T04:52:16.478Z,22.50
2019-06-20T04:54:46.530Z,22.40
2019-06-20T04:57:16.657Z,22.30
2019-06-20T04:59:48.330Z,22.30
2019-06-20T05:02:20.693Z,22.40
2019-06-20T05:04:50.829Z,22.50
2019-06-20T05:07:20.952Z,22.70
2019-06-20T05:09:51.300Z,22.80
2019-06-20T05:12:21.689Z,22.90
2019-06-20T05:14:51.825Z,22.90
2019-06-20T05:17:21.973Z,23.00
2019-06-20T05:19:52.093Z,23.10
2019-06-20T05:22:22.327Z,23.20
2019-06-20T05:25:05.577Z,23.30
2019-06-20T05:27:35.708Z,23.30
2019-06-20T05:30:31.973Z,23.40
2019-06-20T05:33:02.125Z,23.50
2019-06-20T05:35:57.265Z,23.70
2019-06-20T05:38:27.387Z,23.80
2019-06-20T05:41:17.868Z,23.80
2019-06-20T05:43:47.993Z,23.90
2019-06-20T05:46:27.069Z,24.00
2019-06-20T05:48:58.085Z,24.10
2019-06-20T05:51:28.655Z,24.20
2019-06-20T05:53:58.787Z,23.90
2019-06-20T05:56:28.908Z,24.10
2019-06-20T05:58:59.030Z,24.10
2019-06-20T06:01:29.360Z,24.20
2019-06-20T06:04:10.813Z,24.30
2019-06-20T06:06:40.981Z,24.40
2019-06-20T06:09:11.085Z,24.30
2019-06-20T06:11:41.197Z,24.50
2019-06-20T06:14:11.323Z,24.70
2019-06-20T06:16:44.114Z,24.80
2019-06-20T06:19:13.181Z,24.80
2019-06-20T06:21:43.764Z,25.00
2019-06-20T06:24:34.569Z,25.10
2019-06-20T06:27:04.662Z,25.10
2019-06-20T06:29:54.216Z,25.20
2019-06-20T06:32:39.232Z,25.50
2019-06-20T06:35:20.000Z,25.50
2019-06-20T06:37:50.077Z,25.30
2019-06-20T06:40:41.328Z,25.40
2019-06-20T06:43:11.468Z,25.50
2019-06-20T06:45:59.423Z,25.70
2019-06-20T06:48:29.512Z,25.60
2019-06-20T06:50:59.659Z,25.70
2019-06-20T06:53:29.758Z,25.70
2019-06-20T06:55:59.906Z,25.70
2019-06-20T06:58:29.994Z,25.90
2019-06-20T07:01:00.136Z,25.70
2019-06-20T07:03:30.236Z,25.70
2019-06-20T07:06:00.371Z,25.60
2019-06-20T07:08:30.535Z,25.70
2019-06-20T07:11:00.783Z,25.70
2019-06-20T07:13:31.022Z,25.90
2019-06-20T07:16:01.267Z,26.10
2019-06-20T07:18:40.628Z,26.20
2019-06-20T07:21:10.853Z,26.30
2019-06-20T07:23:59.905Z,26.30
2019-06-20T07:26:30.050Z,26.60
2019-06-20T07:29:00.162Z,26.50
2019-06-20T07:31:30.350Z,26.60
2019-06-20T07:34:00.557Z,26.60
2019-06-20T07:36:30.655Z,26.20
2019-06-20T07:39:00.982Z,26.50
2019-06-20T07:41:31.114Z,26.50
2019-06-20T07:44:01.162Z,26.60
2019-06-20T07:46:31.300Z,27.00
2019-06-20T07:49:01.396Z,27.10
2019-06-20T07:51:31.516Z,27.30
2019-06-20T07:54:01.637Z,27.40
2019-06-20T07:56:38.275Z,27.30
2019-06-20T07:59:08.392Z,27.40
2019-06-20T08:02:01.708Z,27.30
2019-06-20T08:04:31.868Z,27.40
2019-06-20T08:07:03.642Z,27.50
2019-06-20T08:09:44.938Z,27.80
2019-06-20T08:12:06.717Z,27.90
2019-06-20T08:14:36.897Z,27.90
2019-06-20T08:17:07.002Z,28.10
2019-06-20T08:19:37.114Z,28.00
2019-06-20T08:22:07.312Z,28.30
2019-06-20T08:24:37.437Z,28.50
2019-06-20T08:27:07.529Z,28.60
2019-06-20T08:29:37.676Z,28.80
2019-06-20T08:32:07.749Z,28.50
2019-06-20T08:34:37.829Z,28.50
2019-06-20T08:37:08.000Z,28.60
2019-06-20T08:39:56.764Z,28.50
2019-06-20T08:42:26.326Z,28.50
2019-06-20T08:44:57.905Z,28.50
2019-06-20T08:47:30.236Z,28.30
2019-06-20T08:50:01.544Z,28.60
2019-06-20T08:52:31.870Z,28.80
2019-06-20T08:55:03.335Z,29.30
2019-06-20T08:57:33.603Z,29.30
2019-06-20T09:02:35.272Z,29.60
2019-06-20T09:05:05.503Z,29.40
2019-06-20T09:07:35.695Z,29.10
2019-06-20T09:10:06.889Z,28.90
2019-06-20T09:12:37.243Z,29.10
2019-06-20T09:15:08.235Z,29.20
2019-06-20T09:17:58.469Z,29.00
2019-06-20T09:20:30.087Z,29.10
2019-06-20T09:23:17.082Z,29.30
2019-06-20T09:25:47.170Z,29.80
2019-06-20T09:28:40.910Z,30.10
2019-06-20T09:31:07.686Z,30.10
2019-06-20T09:33:37.811Z,30.50
2019-06-20T09:36:08.041Z,30.70
2019-06-20T09:38:38.512Z,31.20
2019-06-20T09:41:11.825Z,31.10
2019-06-20T09:43:42.088Z,31.30
2019-06-20T09:46:12.223Z,31.60
2019-06-20T09:48:42.377Z,31.70
2019-06-20T09:51:12.456Z,31.90
2019-06-20T09:53:42.612Z,31.90
2019-06-20T09:56:12.720Z,31.90
2019-06-20T09:58:42.844Z,32.00
2019-06-20T10:01:18.917Z,32.00
2019-06-20T10:03:50.408Z,32.40
2019-06-20T10:06:42.688Z,32.10
2019-06-20T10:09:12.846Z,31.70
2019-06-20T10:11:50.081Z,31.80
2019-06-20T10:14:15.046Z,31.70
2019-06-20T10:16:48.750Z,31.40
2019-06-20T10:19:19.696Z,31.60
2019-06-20T10:21:49.829Z,31.60
2019-06-20T10:24:20.068Z,31.50
2019-06-20T10:26:51.422Z,31.50
2019-06-20T10:29:21.645Z,31.80
2019-06-20T10:31:53.090Z,31.90
2019-06-20T10:34:23.308Z,31.90
2019-06-20T10:36:53.440Z,31.90
2019-06-20T10:39:23.531Z,32.10
2019-06-20T10:41:53.744Z,31.70
2019-06-20T10:44:23.873Z,31.90
2019-06-20T10:46:54.022Z,32.20
2019-06-20T10:49:24.165Z,32.10
2019-06-20T10:51:54.245Z,32.20
2019-06-20T10:54:24.390Z,31.80
2019-06-20T10:56:54.512Z,32.00
2019-06-20T10:59:24.712Z,32.30
2019-06-20T11:01:54.782Z,32.30
2019-06-20T11:04:24.929Z,31.90
2019-06-20T11:06:55.034Z,32.30
2019-06-20T11:09:25.160Z,32.20
2019-06-20T11:11:56.781Z,32.20
2019-06-20T11:14:26.853Z,32.30
2019-06-20T11:16:56.949Z,32.40
2019-06-20T11:19:27.064Z,32.40
2019-06-20T11:21:57.192Z,31.90
2019-06-20T11:24:27.308Z,31.90
2019-06-20T11:26:57.429Z,32.20
2019-06-20T11:29:27.988Z,31.60
2019-06-20T11:31:58.514Z,31.60
2019-06-20T11:34:28.673Z,31.80
2019-06-20T11:36:58.826Z,31.80
2019-06-20T11:39:28.961Z,31.50
2019-06-20T11:41:59.090Z,31.30
2019-06-20T11:44:29.199Z,31.80
2019-06-20T11:46:59.365Z,31.30
2019-06-20T11:49:49.674Z,31.50
2019-06-20T11:52:19.757Z,31.80
2019-06-20T11:54:57.602Z,32.50
2019-06-20T11:57:27.978Z,32.20
2019-06-20T11:59:58.132Z,32.10
2019-06-20T12:02:28.252Z,32.10
2019-06-20T12:04:58.355Z,32.00
2019-06-20T12:07:28.473Z,32.00
2019-06-20T12:09:59.464Z,32.10
2019-06-20T12:12:29.897Z,32.20
2019-06-20T12:15:00.302Z,32.30
2019-06-20T12:17:30.420Z,32.90
2019-06-20T12:20:00.577Z,33.10
2019-06-20T12:22:30.729Z,32.40
2019-06-20T12:25:00.834Z,32.50
2019-06-20T12:27:38.829Z,32.50
2019-06-20T12:30:11.674Z,32.20
2019-06-20T12:32:58.446Z,32.00
2019-06-20T12:35:28.499Z,31.80
2019-06-20T12:37:58.557Z,31.90
2019-06-20T12:40:28.644Z,31.80
2019-06-20T12:42:58.873Z,32.30
2019-06-20T12:45:28.909Z,32.30
2019-06-20T12:47:59.049Z,32.80
2019-06-20T12:50:29.130Z,33.20
2019-06-20T12:53:00.497Z,33.10
2019-06-20T12:55:30.530Z,33.80
2019-06-20T12:58:00.588Z,33.80
2019-06-20T13:00:31.494Z,33.40
2019-06-20T13:03:01.614Z,33.00
2019-06-20T13:05:31.709Z,33.90
2019-06-20T13:08:01.787Z,34.10
2019-06-20T13:10:51.461Z,33.50
2019-06-20T13:13:21.561Z,34.30
2019-06-20T13:16:13.286Z,36.50
2019-06-20T13:18:44.635Z,37.60
2019-06-20T13:21:31.571Z,38.20
2019-06-20T13:23:59.965Z,38.90
2019-06-20T13:26:30.021Z,38.10
2019-06-20T13:29:04.135Z,37.90
2019-06-20T13:31:31.798Z,37.50
2019-06-20T13:34:01.885Z,38.50
2019-06-20T13:36:32.014Z,37.60
2019-06-20T13:39:02.165Z,36.90
2019-06-20T13:41:32.244Z,36.50
2019-06-20T13:44:02.336Z,37.10
2019-06-20T13:46:32.436Z,36.10
2019-06-20T13:49:05.696Z,35.00
2019-06-20T13:51:35.793Z,35.00
2019-06-20T13:54:27.073Z,35.30
2019-06-20T13:56:57.138Z,36.10
2019-06-20T13:59:52.443Z,36.30
2019-06-20T14:02:20.879Z,38.20
2019-06-20T14:04:51.017Z,38.70
2019-06-20T14:07:21.128Z,38.90
2019-06-20T14:09:51.217Z,41.00
2019-06-20T14:12:21.264Z,41.90
2019-06-20T14:14:52.275Z,41.70
2019-06-20T14:17:22.442Z,41.60
2019-06-20T14:19:52.519Z,41.60
2019-06-20T14:22:22.651Z,41.70
2019-06-20T14:24:53.682Z,41.20
2019-06-20T14:27:23.804Z,42.10
2019-06-20T14:29:55.151Z,43.50
2019-06-20T14:32:43.399Z,42.80
2019-06-20T14:35:13.608Z,40.80
2019-06-20T14:38:00.789Z,41.50
2019-06-20T14:40:30.890Z,41.30
2019-06-20T14:43:27.499Z,39.30
2019-06-20T14:45:57.680Z,37.60
2019-06-20T14:48:48.506Z,36.60
2019-06-20T14:51:18.767Z,37.60
2019-06-20T14:54:12.461Z,38.60
2019-06-20T14:56:44.465Z,38.50
2019-06-20T14:59:35.519Z,40.00
2019-06-20T15:02:05.678Z,42.00
2019-06-20T15:04:50.499Z,43.50
2019-06-20T15:07:17.649Z,43.80
2019-06-20T15:09:49.474Z,42.20
2019-06-20T15:12:19.606Z,40.60
2019-06-20T15:14:51.098Z,41.80
2019-06-20T15:17:21.840Z,43.10
2019-06-20T15:19:51.951Z,43.60
2019-06-20T15:22:22.021Z,43.70
2019-06-20T15:24:53.584Z,43.50
2019-06-20T15:27:23.774Z,39.90
2019-06-20T15:29:54.438Z,38.50
2019-06-20T15:32:24.694Z,37.70
2019-06-20T15:34:55.109Z,37.20
2019-06-20T15:37:28.393Z,36.90
2019-06-20T15:39:58.483Z,36.50
2019-06-20T15:42:51.101Z,36.10
2019-06-20T15:45:21.540Z,35.50
2019-06-20T15:48:14.106Z,34.50
2019-06-20T15:50:44.238Z,34.10
2019-06-20T15:53:34.031Z,33.50
2019-06-20T15:56:04.148Z,32.80
2019-06-20T15:58:35.289Z,32.60
2019-06-20T16:01:05.445Z,32.40
2019-06-20T16:03:35.535Z,32.30
2019-06-20T16:06:05.648Z,31.90
2019-06-20T16:08:35.721Z,31.60
2019-06-20T16:11:05.783Z,31.40
2019-06-20T16:13:35.904Z,31.00
2019-06-20T16:16:05.998Z,30.60
2019-06-20T16:18:36.073Z,30.40
2019-06-20T16:21:06.145Z,30.40
2019-06-20T16:23:36.316Z,30.20
2019-06-20T16:26:16.709Z,30.00
2019-06-20T16:28:49.793Z,29.90
2019-06-20T16:31:47.935Z,29.80
2019-06-20T16:34:18.020Z,29.50
2019-06-20T16:37:10.105Z,29.40
2019-06-20T16:39:35.533Z,29.20
2019-06-20T16:42:29.381Z,29.10
2019-06-20T16:44:59.533Z,29.20
2019-06-20T16:50:13.457Z,29.10
2019-06-20T16:52:43.541Z,29.00
2019-06-20T16:55:14.013Z,28.80
2019-06-20T16:57:44.107Z,28.70
2019-06-20T17:00:15.730Z,28.60
2019-06-20T17:02:45.832Z,28.40
2019-06-20T17:05:16.116Z,28.40
2019-06-20T17:07:46.244Z,28.10
2019-06-20T17:10:16.457Z,28.00
2019-06-20T17:12:46.595Z,28.00
2019-06-20T17:15:16.881Z,28.00
2019-06-20T17:17:47.245Z,27.90
2019-06-20T17:20:38.176Z,27.90
2019-06-20T17:23:08.287Z,27.80
2019-06-20T17:25:49.151Z,27.70
2019-06-20T17:28:19.595Z,27.70
2019-06-20T17:30:49.673Z,27.60
2019-06-20T17:33:19.791Z,27.50
2019-06-20T17:35:49.864Z,27.50
2019-06-20T17:38:19.940Z,27.50
2019-06-20T17:40:50.000Z,27.50
2019-06-20T17:43:20.099Z,27.20
2019-06-20T17:45:50.193Z,27.10
2019-06-20T17:48:20.397Z,27.10
2019-06-20T17:50:50.559Z,27.00
2019-06-20T17:53:20.656Z,27.00
2019-06-20T17:55:50.725Z,26.90
2019-06-20T17:58:25.379Z,26.90
2019-06-20T18:00:55.531Z,26.80
2019-06-20T18:03:47.952Z,26.80
2019-06-20T18:06:18.013Z,26.80
2019-06-20T18:09:10.124Z,26.80
2019-06-20T18:11:40.257Z,26.80
2019-06-20T18:14:26.096Z,26.70
2019-06-20T18:16:55.348Z,26.60
2019-06-20T18:19:25.395Z,26.60
2019-06-20T18:21:56.091Z,26.50
2019-06-20T18:24:26.214Z,26.40
2019-06-20T18:26:56.309Z,26.40
2019-06-20T18:29:26.393Z,26.40
2019-06-20T18:31:56.520Z,26.30
2019-06-20T18:34:30.244Z,26.00
2019-06-20T18:36:58.357Z,25.50
2019-06-20T18:39:28.453Z,25.10
2019-06-20T18:41:58.528Z,24.70
2019-06-20T18:44:28.637Z,24.30
2019-06-20T18:46:58.698Z,24.10
2019-06-20T18:49:28.781Z,23.90
2019-06-20T18:52:23.843Z,23.90
2019-06-20T18:54:54.010Z,23.80
2019-06-20T18:57:48.750Z,23.70
2019-06-20T19:00:33.730Z,23.60
2019-06-20T19:03:09.341Z,23.10
2019-06-20T19:05:39.441Z,20.40
2019-06-20T19:08:33.106Z,19.60
2019-06-20T19:11:03.453Z,19.10
2019-06-20T19:13:55.739Z,19.10
2019-06-20T19:16:13.546Z,19.20
2019-06-20T19:18:43.735Z,19.00
2019-06-20T19:21:14.128Z,18.80
2019-06-20T19:23:44.222Z,18.80
2019-06-20T19:26:14.315Z,18.80
2019-06-20T19:28:44.612Z,18.80
2019-06-20T19:31:14.760Z,18.90
2019-06-20T19:33:44.843Z,19.00
2019-06-20T19:36:14.957Z,19.00
2019-06-20T19:38:45.031Z,19.20
2019-06-20T19:41:15.121Z,19.40
2019-06-20T19:43:45.245Z,19.30
2019-06-20T19:46:22.712Z,19.10
2019-06-20T19:48:52.833Z,19.10
2019-06-20T19:51:36.580Z,19.20
2019-06-20T19:54:07.004Z,19.20
2019-06-20T19:56:37.331Z,19.10
2019-06-20T19:59:07.437Z,19.00
2019-06-20T20:01:37.580Z,19.10
2019-06-20T20:04:07.646Z,19.20
2019-06-20T20:06:37.752Z,19.30
2019-06-20T20:09:08.998Z,19.30
2019-06-20T20:11:39.086Z,19.30
2019-06-20T20:14:09.138Z,19.40
2019-06-20T20:16:39.353Z,19.30
2019-06-20T20:19:09.401Z,19.50
2019-06-20T20:21:39.596Z,19.40
2019-06-20T20:24:10.368Z,19.40
2019-06-20T20:26:41.872Z,19.40
2019-06-20T20:29:33.269Z,19.30
2019-06-20T20:32:03.328Z,19.40
2019-06-20T20:34:56.757Z,19.30
2019-06-20T20:37:26.869Z,19.40
2019-06-20T20:39:56.989Z,19.30
2019-06-20T20:42:27.080Z,19.20
2019-06-20T20:44:57.173Z,19.30
2019-06-20T20:47:28.500Z,19.20
2019-06-20T20:49:58.961Z,18.90
2019-06-20T20:52:29.053Z,18.90
2019-06-20T20:54:59.183Z,18.80
2019-06-20T20:57:29.281Z,18.80
2019-06-20T20:59:59.373Z,18.90
2019-06-20T21:02:29.468Z,19.00
2019-06-20T21:04:59.561Z,19.00
2019-06-20T21:07:29.656Z,19.00
2019-06-20T21:09:59.714Z,19.00
2019-06-20T21:12:29.804Z,18.90
2019-06-20T21:14:59.877Z,19.00
2019-06-20T21:17:30.003Z,19.00
2019-06-20T21:20:01.526Z,19.00
2019-06-20T21:22:32.350Z,19.10
2019-06-20T21:25:05.062Z,19.10
2019-06-20T21:27:36.080Z,19.10
2019-06-20T21:30:07.561Z,19.10
2019-06-20T21:32:37.854Z,19.20
2019-06-20T21:35:08.842Z,19.00
2019-06-20T21:37:58.192Z,19.00
2019-06-20T21:40:29.954Z,18.90
2019-06-20T21:43:00.436Z,18.80
2019-06-20T21:45:44.454Z,18.80
2019-06-20T21:48:15.560Z,18.80
2019-06-20T21:51:04.746Z,18.90
2019-06-20T21:53:35.823Z,18.70
2019-06-20T21:56:15.189Z,18.70
2019-06-20T21:58:46.251Z,18.80
2019-06-20T22:01:17.621Z,18.70
2019-06-20T22:03:48.186Z,18.70
2019-06-20T22:06:23.699Z,18.70
2019-06-20T22:08:50.288Z,18.70
2019-06-20T22:11:20.397Z,18.70
2019-06-20T22:13:50.501Z,18.70
2019-06-20T22:16:20.577Z,18.70
2019-06-20T22:18:50.670Z,18.60
2019-06-20T22:21:20.857Z,18.60
2019-06-20T22:23:51.012Z,18.50
2019-06-20T22:26:21.120Z,18.40
2019-06-20T22:28:56.094Z,18.50
2019-06-20T22:31:26.282Z,18.40
2019-06-20T22:34:17.562Z,18.60
2019-06-20T22:36:47.663Z,18.50
2019-06-20T22:39:29.747Z,18.40
2019-06-20T22:41:58.674Z,18.50
2019-06-20T22:44:28.762Z,18.40
2019-06-20T22:46:58.825Z,18.50
2019-06-20T22:49:28.910Z,18.40
2019-06-20T22:51:58.962Z,18.30
2019-06-20T22:54:29.053Z,18.30
2019-06-20T22:56:59.351Z,18.40
2019-06-20T22:59:29.657Z,18.30
2019-06-20T23:01:59.756Z,18.20
2019-06-20T23:04:29.848Z,18.30
2019-06-20T23:06:59.981Z,18.20
2019-06-20T23:09:29.968Z,18.40
2019-06-20T23:12:06.202Z,18.20
2019-06-20T23:14:36.288Z,18.30
2019-06-20T23:17:26.212Z,18.20
2019-06-20T23:19:56.322Z,18.30
2019-06-20T23:22:26.413Z,18.30
2019-06-20T23:24:56.525Z,18.30
2019-06-20T23:27:26.605Z,18.30
2019-06-20T23:29:56.653Z,18.40
2019-06-20T23:32:26.782Z,18.40
2019-06-20T23:34:56.863Z,18.30
2019-06-20T23:37:26.998Z,18.40
2019-06-20T23:39:57.087Z,18.40
2019-06-20T23:42:27.182Z,18.40
2019-06-20T23:44:57.232Z,18.40
2019-06-20T23:47:27.324Z,18.50
2019-06-20T23:49:57.412Z,18.50
2019-06-20T23:52:29.293Z,18.50
2019-06-20T23:55:16.908Z,18.40
2019-06-20T23:57:46.969Z,18.40
